createdAt,value
2023-05-23T00:01:14.912Z,6.10
2023-05-23T00:03:44.847Z,6.07
2023-05-23T00:06:16.458Z,5.37
2023-05-23T00:08:46.426Z,5.77
2023-05-23T00:11:16.409Z,6.40
2023-05-23T00:13:46.124Z,5.60
2023-05-23T00:16:26.108Z,6.40
2023-05-23T00:18:59.800Z,4.40
2023-05-23T00:21:33.841Z,5.77
2023-05-23T00:24:04.761Z,6.03
2023-05-23T00:26:39.255Z,5.57
2023-05-23T00:29:08.749Z,5.73
2023-05-23T00:31:38.661Z,5.13
2023-05-23T00:34:08.446Z,5.40
2023-05-23T00:36:39.488Z,5.23
2023-05-23T00:39:09.296Z,5.63
2023-05-23T00:41:39.491Z,5.03
2023-05-23T00:44:10.329Z,4.73
2023-05-23T00:46:41.205Z,4.60
2023-05-23T00:49:11.402Z,5.50
2023-05-23T00:51:44.769Z,7.40
2023-05-23T00:54:16.723Z,9.80
2023-05-23T00:56:47.199Z,5.73
2023-05-23T00:59:17.659Z,7.30
2023-05-23T01:01:47.759Z,5.83
2023-05-23T01:04:21.253Z,5.40
2023-05-23T01:06:53.245Z,5.47
2023-05-23T01:09:25.302Z,4.83
2023-05-23T01:12:06.636Z,6.17
2023-05-23T01:14:44.611Z,5.10
2023-05-23T01:17:21.672Z,6.03
2023-05-23T01:20:10.338Z,5.33
2023-05-23T01:23:06.540Z,6.13
2023-05-23T01:25:54.044Z,5.57
2023-05-23T01:28:30.042Z,5.63
2023-05-23T01:31:02.208Z,5.80
2023-05-23T01:33:33.569Z,5.73
2023-05-23T01:36:04.819Z,5.83
2023-05-23T01:38:34.679Z,5.83
2023-05-23T01:41:04.244Z,5.87
2023-05-23T01:43:36.117Z,5.33
2023-05-23T01:46:12.856Z,5.80
2023-05-23T01:48:42.951Z,4.53
2023-05-23T01:51:13.564Z,4.80
2023-05-23T01:53:45.413Z,5.10
2023-05-23T01:56:15.466Z,5.77
2023-05-23T01:58:47.020Z,5.90
2023-05-23T02:01:17.001Z,5.80
2023-05-23T02:03:47.134Z,5.83
2023-05-23T02:06:17.061Z,6.10
2023-05-23T02:08:49.800Z,5.33
2023-05-23T02:11:19.951Z,6.23
2023-05-23T02:13:52.022Z,5.80
2023-05-23T02:16:21.931Z,6.10
2023-05-23T02:18:56.557Z,7.30
2023-05-23T02:21:26.061Z,6.47
2023-05-23T02:23:55.984Z,7.20
2023-05-23T02:26:25.571Z,6.30
2023-05-23T02:28:56.741Z,6.23
2023-05-23T02:31:28.008Z,6.53
2023-05-23T02:33:57.688Z,5.10
2023-05-23T02:36:27.096Z,6.90
2023-05-23T02:38:57.743Z,6.93
2023-05-23T02:41:27.956Z,6.20
2023-05-23T02:43:59.066Z,6.87
2023-05-23T02:46:29.208Z,7.13
2023-05-23T02:48:58.952Z,6.70
2023-05-23T02:51:29.451Z,7.57
2023-05-23T02:53:59.634Z,6.97
2023-05-23T02:56:29.460Z,6.50
2023-05-23T02:59:00.634Z,7.27
2023-05-23T03:01:30.564Z,6.73
2023-05-23T03:04:00.353Z,7.30
2023-05-23T03:06:33.103Z,6.73
2023-05-23T03:09:05.041Z,6.53
2023-05-23T03:11:34.874Z,5.67
2023-05-23T03:14:06.480Z,6.37
2023-05-23T03:16:37.026Z,5.67
2023-05-23T03:19:07.174Z,6.17
2023-05-23T03:21:36.749Z,5.53
2023-05-23T03:24:06.602Z,6.07
2023-05-23T03:26:36.749Z,5.30
2023-05-23T03:29:07.693Z,5.53
2023-05-23T03:31:37.350Z,5.83
2023-05-23T03:34:06.956Z,6.80
2023-05-23T03:36:39.457Z,6.40
2023-05-23T03:39:14.594Z,7.27
2023-05-23T03:41:44.276Z,6.10
2023-05-23T03:44:16.198Z,7.30
2023-05-23T03:46:46.253Z,6.43
2023-05-23T03:49:17.708Z,7.37
2023-05-23T03:51:50.218Z,6.40
2023-05-23T03:54:20.545Z,5.97
2023-05-23T03:57:00.316Z,5.73
2023-05-23T03:59:36.589Z,6.37
2023-05-23T04:02:09.452Z,6.47
2023-05-23T04:04:39.888Z,7.50
2023-05-23T04:07:11.499Z,6.67
2023-05-23T04:09:43.525Z,7.53
2023-05-23T04:12:14.293Z,6.40
2023-05-23T04:14:45.505Z,5.63
2023-05-23T04:17:16.203Z,7.60
2023-05-23T04:19:46.756Z,7.07
2023-05-23T04:22:16.593Z,7.60
2023-05-23T04:24:47.215Z,7.83
2023-05-23T04:27:16.857Z,5.60
2023-05-23T04:29:48.439Z,6.40
2023-05-23T04:32:19.766Z,8.10
2023-05-23T04:34:50.114Z,6.50
2023-05-23T04:37:22.457Z,6.57
2023-05-23T04:39:52.390Z,6.60
2023-05-23T04:42:42.636Z,6.80
2023-05-23T04:45:27.031Z,7.80
2023-05-23T04:48:13.499Z,7.00
2023-05-23T04:50:47.900Z,7.13
2023-05-23T04:53:18.138Z,7.80
2023-05-23T04:55:48.358Z,8.60
2023-05-23T04:58:20.201Z,7.30
2023-05-23T05:00:51.177Z,6.00
2023-05-23T05:03:20.726Z,7.47
2023-05-23T05:05:50.704Z,8.00
2023-05-23T05:08:21.106Z,8.03
2023-05-23T05:10:50.585Z,7.70
2023-05-23T05:13:22.200Z,8.93
2023-05-23T05:15:55.210Z,6.97
2023-05-23T05:18:27.141Z,8.10
2023-05-23T05:20:58.635Z,7.53
2023-05-23T05:23:29.596Z,7.50
2023-05-23T05:26:00.767Z,7.23
2023-05-23T05:28:30.449Z,7.77
2023-05-23T05:31:05.395Z,7.33
2023-05-23T05:33:37.850Z,6.70
2023-05-23T05:36:15.702Z,7.20
2023-05-23T05:38:45.889Z,7.30
2023-05-23T05:41:15.337Z,6.27
2023-05-23T05:43:49.295Z,7.43
2023-05-23T05:46:19.935Z,7.40
2023-05-23T05:48:49.738Z,6.57
2023-05-23T05:51:20.085Z,7.17
2023-05-23T05:53:49.662Z,6.43
2023-05-23T05:56:19.306Z,6.97
2023-05-23T05:58:48.379Z,6.90
2023-05-23T06:01:20.263Z,6.93
2023-05-23T06:03:49.654Z,7.43
2023-05-23T06:06:20.373Z,6.70
2023-05-23T06:08:50.330Z,6.57
2023-05-23T06:11:19.877Z,7.40
2023-05-23T06:13:49.110Z,6.40
2023-05-23T06:16:19.889Z,7.30
2023-05-23T06:18:49.182Z,7.90
2023-05-23T06:21:18.537Z,7.33
2023-05-23T06:23:51.000Z,7.30
2023-05-23T06:26:20.272Z,6.87
2023-05-23T06:28:49.313Z,7.50
2023-05-23T06:31:19.957Z,7.80
2023-05-23T06:33:49.098Z,7.70
2023-05-23T06:36:19.783Z,7.90
2023-05-23T06:38:50.739Z,7.37
2023-05-23T06:41:20.076Z,16.73
2023-05-23T06:43:49.632Z,9.00
2023-05-23T06:46:27.154Z,8.93
2023-05-23T06:49:06.943Z,8.07
2023-05-23T06:51:44.855Z,7.07
2023-05-23T06:54:14.439Z,9.23
2023-05-23T06:56:43.643Z,22.97
2023-05-23T06:59:12.881Z,7.63
2023-05-23T07:01:43.850Z,7.17
2023-05-23T07:04:13.710Z,7.77
2023-05-23T07:06:42.999Z,9.60
2023-05-23T07:09:13.261Z,13.63
2023-05-23T07:11:43.374Z,7.90
2023-05-23T07:14:13.133Z,8.50
2023-05-23T07:16:51.970Z,7.97
2023-05-23T07:19:21.851Z,8.23
2023-05-23T07:21:53.541Z,8.10
2023-05-23T07:24:24.586Z,8.80
2023-05-23T07:26:57.044Z,9.30
2023-05-23T07:29:28.000Z,8.40
2023-05-23T07:31:59.076Z,9.13
2023-05-23T07:34:29.280Z,8.30
2023-05-23T07:37:01.902Z,7.33
2023-05-23T07:39:37.679Z,7.37
2023-05-23T07:42:07.840Z,8.80
2023-05-23T07:44:36.993Z,9.43
2023-05-23T07:47:08.092Z,8.30
2023-05-23T07:49:37.409Z,7.07
2023-05-23T07:52:07.732Z,8.70
2023-05-23T07:54:38.114Z,6.80
2023-05-23T07:57:09.107Z,7.97
2023-05-23T07:59:40.042Z,7.93
2023-05-23T08:02:10.825Z,7.10
2023-05-23T08:04:41.589Z,8.50
2023-05-23T08:07:11.694Z,8.50
2023-05-23T08:09:48.535Z,7.73
2023-05-23T08:12:20.907Z,8.17
2023-05-23T08:14:57.559Z,6.47
2023-05-23T08:17:33.085Z,7.00
2023-05-23T08:20:03.279Z,7.10
2023-05-23T08:22:33.248Z,6.80
2023-05-23T08:25:03.414Z,8.10
2023-05-23T08:27:34.102Z,7.10
2023-05-23T08:30:10.117Z,7.27
2023-05-23T08:32:41.810Z,8.23
2023-05-23T08:35:11.261Z,7.83
2023-05-23T08:37:43.165Z,8.10
2023-05-23T08:40:20.384Z,8.30
2023-05-23T08:42:57.640Z,9.93
2023-05-23T08:45:27.145Z,8.83
2023-05-23T08:48:01.354Z,8.60
2023-05-23T08:50:33.157Z,9.30
2023-05-23T08:53:03.689Z,8.83
2023-05-23T08:55:33.823Z,8.73
2023-05-23T08:58:04.798Z,9.20
2023-05-23T09:00:43.959Z,8.37
2023-05-23T09:03:15.263Z,8.70
2023-05-23T09:05:55.379Z,8.20
2023-05-23T09:08:25.865Z,8.23
2023-05-23T09:10:59.413Z,8.00
2023-05-23T09:13:29.649Z,7.50
2023-05-23T09:16:04.974Z,8.10
2023-05-23T09:18:43.054Z,8.10
2023-05-23T09:21:15.701Z,8.73
2023-05-23T09:23:58.355Z,8.87
2023-05-23T09:26:28.939Z,8.20
2023-05-23T09:29:00.650Z,8.50
2023-05-23T09:31:30.240Z,9.00
2023-05-23T09:34:01.352Z,9.30
2023-05-23T09:36:33.893Z,9.97
2023-05-23T09:39:06.552Z,9.93
2023-05-23T09:41:36.478Z,9.13
2023-05-23T09:44:11.018Z,8.57
2023-05-23T09:46:40.475Z,8.57
2023-05-23T09:49:22.477Z,8.70
2023-05-23T09:52:01.448Z,9.20
2023-05-23T09:54:30.671Z,8.97
2023-05-23T09:57:02.475Z,8.40
2023-05-23T09:59:33.715Z,9.80
2023-05-23T10:02:08.088Z,9.10
2023-05-23T10:04:41.314Z,10.20
2023-05-23T10:07:16.296Z,8.93
2023-05-23T10:09:52.084Z,10.07
2023-05-23T10:12:44.619Z,9.37
2023-05-23T10:15:18.151Z,8.40
2023-05-23T10:18:08.027Z,7.53
2023-05-23T10:20:41.368Z,7.33
2023-05-23T10:23:11.458Z,7.90
2023-05-23T10:25:42.233Z,8.20
2023-05-23T10:28:11.861Z,8.60
2023-05-23T10:30:42.160Z,9.60
2023-05-23T10:33:14.237Z,10.83
2023-05-23T10:35:55.993Z,9.30
2023-05-23T10:38:36.153Z,9.00
2023-05-23T10:41:12.176Z,10.30
2023-05-23T10:43:50.286Z,10.00
2023-05-23T10:46:23.117Z,10.43
2023-05-23T10:48:58.069Z,12.07
2023-05-23T10:51:39.632Z,12.80
2023-05-23T10:54:13.385Z,13.90
2023-05-23T10:56:42.553Z,14.33
2023-05-23T10:59:23.277Z,12.37
2023-05-23T11:01:53.610Z,13.10
2023-05-23T11:04:28.180Z,14.20
2023-05-23T11:06:59.180Z,15.23
2023-05-23T11:09:28.281Z,16.13
2023-05-23T11:12:03.003Z,16.23
2023-05-23T11:14:55.187Z,15.63
2023-05-23T11:17:35.134Z,14.67
2023-05-23T11:20:13.531Z,16.33
2023-05-23T11:22:56.333Z,15.10
2023-05-23T11:25:43.187Z,16.20
2023-05-23T11:28:13.094Z,19.40
2023-05-23T11:30:42.887Z,19.30
2023-05-23T11:33:15.100Z,20.00
2023-05-23T11:35:45.095Z,19.87
2023-05-23T11:38:17.175Z,18.60
2023-05-23T11:40:47.773Z,20.17
2023-05-23T11:43:19.792Z,17.73
2023-05-23T11:45:49.253Z,19.60
2023-05-23T11:48:18.966Z,20.40
2023-05-23T11:50:50.535Z,19.43
2023-05-23T11:53:22.350Z,16.97
2023-05-23T11:55:53.356Z,21.07
2023-05-23T11:58:23.449Z,20.10
2023-05-23T12:00:55.109Z,19.53
2023-05-23T12:03:26.006Z,19.23
2023-05-23T12:05:57.262Z,17.33
2023-05-23T12:08:27.963Z,18.93
2023-05-23T12:11:00.063Z,21.80
2023-05-23T12:13:31.237Z,18.27
2023-05-23T12:16:02.991Z,20.40
2023-05-23T12:18:34.041Z,20.60
2023-05-23T12:21:03.820Z,17.67
2023-05-23T12:23:35.258Z,20.07
2023-05-23T12:26:08.127Z,21.67
2023-05-23T12:28:39.269Z,21.27
2023-05-23T12:31:13.420Z,19.50
2023-05-23T12:33:44.152Z,21.20
2023-05-23T12:36:13.983Z,19.93
2023-05-23T12:38:46.501Z,21.20
2023-05-23T12:41:19.933Z,21.47
2023-05-23T12:43:53.079Z,19.57
2023-05-23T12:46:23.494Z,19.60
2023-05-23T12:48:53.303Z,21.43
2023-05-23T12:51:22.875Z,18.43
2023-05-23T12:53:53.618Z,19.37
2023-05-23T12:56:23.518Z,18.43
2023-05-23T12:58:53.945Z,17.77
2023-05-23T13:01:23.863Z,18.93
2023-05-23T13:03:53.096Z,18.20
2023-05-23T13:06:22.356Z,16.67
2023-05-23T13:08:54.610Z,18.50
2023-05-23T13:11:23.811Z,20.10
2023-05-23T13:13:54.178Z,19.40
2023-05-23T13:16:23.465Z,18.80
2023-05-23T13:18:52.754Z,17.97
2023-05-23T13:21:22.256Z,19.27
2023-05-23T13:23:53.206Z,20.00
2023-05-23T13:26:23.261Z,20.03
2023-05-23T13:28:52.634Z,19.33
2023-05-23T13:31:22.069Z,21.07
2023-05-23T13:33:51.249Z,20.67
2023-05-23T13:36:20.568Z,22.67
2023-05-23T13:38:49.698Z,22.70
2023-05-23T13:41:20.401Z,23.30
2023-05-23T13:43:49.461Z,21.67
2023-05-23T13:46:18.555Z,20.83
2023-05-23T13:48:47.602Z,20.40
2023-05-23T13:51:16.928Z,19.53
2023-05-23T13:53:46.153Z,19.50
2023-05-23T13:56:17.083Z,22.20
2023-05-23T13:58:47.741Z,22.03
2023-05-23T14:01:17.491Z,22.27
2023-05-23T14:03:46.592Z,21.10
2023-05-23T14:06:15.642Z,21.40
2023-05-23T14:08:44.690Z,22.60
2023-05-23T14:11:13.783Z,22.93
2023-05-23T14:13:42.902Z,21.87
2023-05-23T14:16:13.383Z,19.83
2023-05-23T14:18:42.582Z,21.50
2023-05-23T14:21:11.876Z,20.40
2023-05-23T14:23:41.051Z,20.97
2023-05-23T14:26:10.127Z,20.90
2023-05-23T14:28:39.250Z,21.43
2023-05-23T14:31:08.378Z,19.90
2023-05-23T14:33:38.875Z,18.50
2023-05-23T14:36:08.611Z,17.77
2023-05-23T14:38:39.770Z,17.57
2023-05-23T14:41:08.856Z,18.80
2023-05-23T14:43:37.973Z,17.00
2023-05-23T14:46:07.750Z,17.87
2023-05-23T14:48:38.353Z,16.33
2023-05-23T14:51:07.586Z,17.80
2023-05-23T14:53:37.574Z,18.37
2023-05-23T14:56:06.895Z,17.43
2023-05-23T14:58:36.026Z,15.63
2023-05-23T15:01:05.626Z,11.00
2023-05-23T15:03:34.830Z,13.20
2023-05-23T15:06:06.769Z,12.70
2023-05-23T15:08:37.129Z,11.33
2023-05-23T15:11:06.259Z,10.20
2023-05-23T15:13:35.386Z,10.07
2023-05-23T15:16:04.486Z,9.70
2023-05-23T15:18:41.253Z,9.73
2023-05-23T15:21:13.397Z,9.60
2023-05-23T15:23:42.765Z,9.50
2023-05-23T15:26:12.118Z,11.50
2023-05-23T15:28:41.172Z,10.70
2023-05-23T15:31:10.260Z,8.60
2023-05-23T15:33:39.873Z,9.67
2023-05-23T15:36:09.350Z,9.10
2023-05-23T15:38:39.986Z,9.63
2023-05-23T15:41:09.054Z,8.80
2023-05-23T15:43:38.198Z,8.67
2023-05-23T15:46:07.492Z,8.50
2023-05-23T15:48:36.628Z,8.03
2023-05-23T15:51:05.873Z,10.87
2023-05-23T15:53:43.289Z,9.00
2023-05-23T15:56:18.888Z,9.40
2023-05-23T15:58:48.049Z,11.00
2023-05-23T16:01:17.160Z,11.97
2023-05-23T16:03:46.830Z,12.17
2023-05-23T16:06:16.146Z,10.30
2023-05-23T16:08:45.352Z,11.33
2023-05-23T16:11:14.554Z,11.00
2023-05-23T16:13:44.979Z,10.50
2023-05-23T16:16:14.288Z,10.03
2023-05-23T16:18:43.472Z,11.70
2023-05-23T16:21:12.534Z,9.30
2023-05-23T16:23:41.597Z,10.67
2023-05-23T16:26:10.895Z,9.27
2023-05-23T16:28:42.469Z,10.53
2023-05-23T16:31:14.633Z,11.90
2023-05-23T16:33:45.057Z,10.30
2023-05-23T16:36:14.163Z,10.93
2023-05-23T16:38:43.233Z,10.07
2023-05-23T16:41:12.317Z,9.60
2023-05-23T16:43:41.597Z,10.63
2023-05-23T16:46:11.042Z,8.67
2023-05-23T16:48:41.819Z,9.33
2023-05-23T16:51:10.914Z,7.10
2023-05-23T16:53:40.239Z,7.00
2023-05-23T16:56:19.651Z,5.73
2023-05-23T16:58:49.159Z,6.13
2023-05-23T17:01:20.069Z,6.30
2023-05-23T17:03:51.189Z,4.43
2023-05-23T17:06:20.455Z,6.33
2023-05-23T17:08:49.727Z,5.70
2023-05-23T17:11:20.034Z,6.00
2023-05-23T17:13:49.337Z,5.00
2023-05-23T17:16:20.374Z,5.60
2023-05-23T17:18:51.325Z,4.50
2023-05-23T17:21:20.550Z,4.77
2023-05-23T17:23:49.657Z,5.33
2023-05-23T17:26:19.792Z,5.57
2023-05-23T17:28:49.030Z,4.40
2023-05-23T17:31:18.454Z,4.77
2023-05-23T17:33:47.654Z,3.50
2023-05-23T17:36:18.062Z,3.73
2023-05-23T17:38:47.531Z,3.60
2023-05-23T17:41:17.180Z,3.10
2023-05-23T17:43:46.289Z,3.63
2023-05-23T17:46:15.560Z,4.50
2023-05-23T17:48:48.051Z,3.13
2023-05-23T17:51:18.708Z,3.60
2023-05-23T17:53:51.695Z,3.83
2023-05-23T17:56:23.126Z,5.77
2023-05-23T17:58:52.808Z,4.13
2023-05-23T18:01:24.858Z,5.70
2023-05-23T18:03:54.880Z,4.60
2023-05-23T18:06:27.068Z,5.00
2023-05-23T18:08:56.129Z,4.93
2023-05-23T18:11:27.451Z,5.00
2023-05-23T18:13:56.891Z,4.53
2023-05-23T18:16:25.981Z,6.10
2023-05-23T18:18:55.103Z,6.33
2023-05-23T18:21:25.787Z,5.37
2023-05-23T18:23:54.825Z,4.13
2023-05-23T18:26:23.870Z,4.80
2023-05-23T18:28:52.934Z,4.30
2023-05-23T18:31:22.526Z,5.00
2023-05-23T18:33:51.651Z,4.53
2023-05-23T18:36:20.979Z,5.10
2023-05-23T18:38:51.717Z,6.07
2023-05-23T18:41:20.877Z,4.70
2023-05-23T18:43:51.017Z,3.87
2023-05-23T18:46:20.203Z,4.87
2023-05-23T18:48:49.368Z,4.70
2023-05-23T18:51:18.892Z,4.70
2023-05-23T18:53:47.958Z,5.50
2023-05-23T18:56:18.455Z,5.00
2023-05-23T18:58:47.735Z,4.63
2023-05-23T19:01:16.995Z,5.90
2023-05-23T19:03:46.518Z,6.43
2023-05-23T19:06:15.735Z,4.57
2023-05-23T19:08:44.850Z,5.60
2023-05-23T19:11:14.817Z,6.10
2023-05-23T19:13:45.361Z,5.70
2023-05-23T19:16:14.641Z,7.17
2023-05-23T19:18:43.743Z,4.80
2023-05-23T19:21:13.305Z,5.03
2023-05-23T19:23:42.481Z,5.97
2023-05-23T19:26:13.461Z,5.03
2023-05-23T19:28:44.121Z,5.27
2023-05-23T19:31:13.542Z,5.93
2023-05-23T19:33:42.677Z,5.67
2023-05-23T19:36:20.268Z,5.83
2023-05-23T19:38:50.242Z,5.10
2023-05-23T19:41:20.332Z,6.67
2023-05-23T19:43:51.711Z,5.23
2023-05-23T19:46:21.850Z,5.53
2023-05-23T19:48:51.327Z,5.93
2023-05-23T19:51:21.555Z,5.53
2023-05-23T19:53:51.539Z,5.30
2023-05-23T19:56:22.524Z,5.30
2023-05-23T19:58:53.573Z,4.93
2023-05-23T20:01:23.701Z,4.77
2023-05-23T20:03:53.471Z,9.00
2023-05-23T20:06:22.994Z,5.90
2023-05-23T20:08:51.992Z,5.97
2023-05-23T20:11:21.217Z,5.00
2023-05-23T20:13:50.382Z,6.20
2023-05-23T20:16:21.105Z,5.10
2023-05-23T20:18:50.262Z,5.60
2023-05-23T20:21:19.407Z,5.00
2023-05-23T20:23:49.284Z,5.90
2023-05-23T20:26:18.344Z,4.93
2023-05-23T20:28:47.472Z,4.90
2023-05-23T20:31:27.251Z,8.60
2023-05-23T20:33:56.493Z,4.13
2023-05-23T20:36:25.704Z,4.90
2023-05-23T20:38:55.008Z,5.47
2023-05-23T20:41:24.601Z,5.07
2023-05-23T20:44:02.769Z,6.20
2023-05-23T20:46:33.696Z,5.83
2023-05-23T20:49:03.617Z,5.70
2023-05-23T20:51:33.779Z,5.53
2023-05-23T20:54:03.332Z,5.93
2023-05-23T20:56:32.441Z,5.50
2023-05-23T20:59:01.632Z,4.73
2023-05-23T21:01:33.059Z,4.27
2023-05-23T21:04:02.719Z,5.70
2023-05-23T21:06:32.675Z,4.60
2023-05-23T21:09:01.820Z,6.17
2023-05-23T21:11:30.915Z,4.80
2023-05-23T21:14:00.144Z,4.23
2023-05-23T21:16:35.443Z,4.23
2023-05-23T21:19:04.670Z,4.83
2023-05-23T21:21:34.120Z,5.30
2023-05-23T21:24:03.232Z,4.83
2023-05-23T21:26:32.494Z,5.40
2023-05-23T21:29:01.952Z,4.37
2023-05-23T21:31:40.816Z,3.97
2023-05-23T21:34:23.417Z,4.87
2023-05-23T21:36:54.510Z,4.37
2023-05-23T21:39:23.883Z,6.00
2023-05-23T21:41:53.182Z,4.80
2023-05-23T21:44:26.059Z,4.87
2023-05-23T21:46:56.234Z,3.90
2023-05-23T21:49:26.888Z,3.33
2023-05-23T21:52:04.069Z,4.27
2023-05-23T21:54:33.551Z,3.20
2023-05-23T21:57:02.702Z,3.53
2023-05-23T21:59:35.937Z,4.87
2023-05-23T22:02:06.718Z,3.37
2023-05-23T22:04:37.703Z,5.40
2023-05-23T22:07:07.027Z,4.17
2023-05-23T22:10:07.410Z,4.47
2023-05-23T22:12:36.629Z,4.50
2023-05-23T22:15:36.952Z,4.20
2023-05-23T22:18:06.680Z,4.23
2023-05-23T22:20:39.340Z,4.15
2023-05-23T22:23:09.913Z,4.00
2023-05-23T22:25:39.026Z,3.87
2023-05-23T22:28:08.074Z,4.63
2023-05-23T22:30:37.455Z,4.07
2023-05-23T22:33:23.705Z,4.07
2023-05-23T22:35:54.300Z,4.20
2023-05-23T22:38:24.570Z,4.10
2023-05-23T22:40:53.772Z,3.58
2023-05-23T22:43:31.241Z,3.40
2023-05-23T22:46:00.388Z,3.60
2023-05-23T22:48:33.962Z,4.73
2023-05-23T22:51:05.614Z,4.20
2023-05-23T22:53:34.831Z,3.40
2023-05-23T22:56:03.973Z,3.65
2023-05-23T22:58:33.100Z,3.90
2023-05-23T23:01:02.186Z,4.35
2023-05-23T23:03:31.316Z,4.00
2023-05-23T23:06:00.602Z,4.50
2023-05-23T23:08:31.069Z,3.45
2023-05-23T23:11:00.178Z,3.50
2023-05-23T23:13:33.200Z,3.33
2023-05-23T23:16:02.304Z,4.13
2023-05-23T23:18:31.345Z,3.20
2023-05-23T23:21:00.450Z,4.78
2023-05-23T23:23:30.975Z,3.60
2023-05-23T23:26:00.366Z,4.15
2023-05-23T23:28:29.673Z,3.72
2023-05-23T23:31:03.549Z,8.25
2023-05-23T23:33:32.533Z,3.08
2023-05-23T23:36:01.932Z,6.13
2023-05-23T23:38:32.507Z,3.65
2023-05-23T23:41:03.487Z,3.17
2023-05-23T23:43:32.603Z,4.55
2023-05-23T23:46:01.682Z,3.90
2023-05-23T23:48:30.694Z,2.90
2023-05-23T23:51:00.159Z,3.80
2023-05-23T23:53:30.176Z,5.55
2023-05-23T23:56:01.020Z,5.65
2023-05-23T23:58:30.132Z,4.07
